sensor_id;sensor_type;location;lat;lon;timestamp;P1;durP1;ratioP1;P2;durP2;ratioP2
51866;SDS011;52862;52.504;13.480;2022-08-04T00:00:51;21.75;;;7.35;;
51866;SDS011;52862;52.504;13.480;2022-08-04T00:03:27;20.50;;;7.07;;
51866;SDS011;52862;52.504;13.480;2022-08-04T00:05:59;14.40;;;7.85;;
51866;SDS011;52862;52.504;13.480;2022-08-04T00:08:31;15.18;;;7.53;;
51866;SDS011;52862;52.504;13.480;2022-08-04T00:11:01;14.45;;;6.88;;
51866;SDS011;52862;52.504;13.480;2022-08-04T00:13:30;17.73;;;8.07;;
51866;SDS011;52862;52.504;13.480;2022-08-04T00:16:01;15.38;;;7.20;;
51866;SDS011;52862;52.504;13.480;2022-08-04T00:18:32;14.73;;;6.43;;
51866;SDS011;52862;52.504;13.480;2022-08-04T00:21:03;21.92;;;6.85;;
51866;SDS011;52862;52.504;13.480;2022-08-04T00:23:32;26.95;;;7.93;;
51866;SDS011;52862;52.504;13.480;2022-08-04T00:26:20;17.17;;;6.95;;
51866;SDS011;52862;52.504;13.480;2022-08-04T00:28:48;15.40;;;6.60;;
51866;SDS011;52862;52.504;13.480;2022-08-04T00:31:15;17.70;;;6.75;;
51866;SDS011;52862;52.504;13.480;2022-08-04T00:33:43;27.88;;;6.85;;
51866;SDS011;52862;52.504;13.480;2022-08-04T00:36:11;18.73;;;6.78;;
51866;SDS011;52862;52.504;13.480;2022-08-04T00:38:39;14.40;;;6.25;;
51866;SDS011;52862;52.504;13.480;2022-08-04T00:41:08;13.40;;;7.43;;
51866;SDS011;52862;52.504;13.480;2022-08-04T00:43:46;9.57;;;6.13;;
51866;SDS011;52862;52.504;13.480;2022-08-04T00:46:40;13.38;;;5.40;;
51866;SDS011;52862;52.504;13.480;2022-08-04T00:49:34;14.43;;;6.22;;
51866;SDS011;52862;52.504;13.480;2022-08-04T00:58:47;18.02;;;6.75;;
51866;SDS011;52862;52.504;13.480;2022-08-04T01:01:31;16.25;;;6.00;;
51866;SDS011;52862;52.504;13.480;2022-08-04T01:04:08;14.90;;;5.50;;
51866;SDS011;52862;52.504;13.480;2022-08-04T01:06:50;15.75;;;5.78;;
51866;SDS011;52862;52.504;13.480;2022-08-04T01:09:38;12.98;;;5.88;;
51866;SDS011;52862;52.504;13.480;2022-08-04T01:12:29;22.33;;;7.63;;
51866;SDS011;52862;52.504;13.480;2022-08-04T01:15:19;11.85;;;5.47;;
51866;SDS011;52862;52.504;13.480;2022-08-04T01:18:03;9.90;;;5.80;;
51866;SDS011;52862;52.504;13.480;2022-08-04T01:20:32;17.92;;;5.82;;
51866;SDS011;52862;52.504;13.480;2022-08-04T01:23:09;12.40;;;5.70;;
51866;SDS011;52862;52.504;13.480;2022-08-04T01:29:24;20.67;;;6.57;;
51866;SDS011;52862;52.504;13.480;2022-08-04T01:32:11;12.32;;;4.93;;
51866;SDS011;52862;52.504;13.480;2022-08-04T01:34:46;17.40;;;5.95;;
51866;SDS011;52862;52.504;13.480;2022-08-04T01:37:20;14.70;;;6.03;;
51866;SDS011;52862;52.504;13.480;2022-08-04T01:39:59;12.27;;;5.47;;
51866;SDS011;52862;52.504;13.480;2022-08-04T01:42:30;9.88;;;5.68;;
51866;SDS011;52862;52.504;13.480;2022-08-04T01:45:00;27.27;;;6.25;;
51866;SDS011;52862;52.504;13.480;2022-08-04T01:47:29;16.60;;;6.43;;
51866;SDS011;52862;52.504;13.480;2022-08-04T01:50:00;21.65;;;6.13;;
51866;SDS011;52862;52.504;13.480;2022-08-04T01:52:31;19.23;;;5.57;;
51866;SDS011;52862;52.504;13.480;2022-08-04T01:54:58;15.02;;;5.32;;
51866;SDS011;52862;52.504;13.480;2022-08-04T01:57:28;14.02;;;6.15;;
51866;SDS011;52862;52.504;13.480;2022-08-04T02:00:05;13.40;;;5.95;;
51866;SDS011;52862;52.504;13.480;2022-08-04T02:02:33;20.25;;;6.07;;
51866;SDS011;52862;52.504;13.480;2022-08-04T02:05:00;14.50;;;6.03;;
51866;SDS011;52862;52.504;13.480;2022-08-04T02:07:31;11.95;;;5.97;;
51866;SDS011;52862;52.504;13.480;2022-08-04T02:10:17;9.85;;;5.38;;
51866;SDS011;52862;52.504;13.480;2022-08-04T02:12:54;19.75;;;5.95;;
51866;SDS011;52862;52.504;13.480;2022-08-04T02:15:28;19.67;;;5.80;;
51866;SDS011;52862;52.504;13.480;2022-08-04T02:18:02;11.57;;;5.63;;
51866;SDS011;52862;52.504;13.480;2022-08-04T02:20:32;11.27;;;5.85;;
51866;SDS011;52862;52.504;13.480;2022-08-04T02:23:00;12.75;;;5.38;;
51866;SDS011;52862;52.504;13.480;2022-08-04T02:25:31;11.02;;;5.38;;
51866;SDS011;52862;52.504;13.480;2022-08-04T02:28:11;9.38;;;5.68;;
51866;SDS011;52862;52.504;13.480;2022-08-04T02:30:51;14.43;;;5.82;;
51866;SDS011;52862;52.504;13.480;2022-08-04T02:33:25;15.20;;;5.40;;
51866;SDS011;52862;52.504;13.480;2022-08-04T02:36:00;12.18;;;5.55;;
51866;SDS011;52862;52.504;13.480;2022-08-04T02:38:32;13.07;;;5.10;;
51866;SDS011;52862;52.504;13.480;2022-08-04T02:41:08;9.63;;;5.13;;
51866;SDS011;52862;52.504;13.480;2022-08-04T02:43:35;20.52;;;5.18;;
51866;SDS011;52862;52.504;13.480;2022-08-04T02:46:18;12.90;;;5.47;;
51866;SDS011;52862;52.504;13.480;2022-08-04T02:48:47;11.05;;;5.03;;
51866;SDS011;52862;52.504;13.480;2022-08-04T02:51:15;16.70;;;5.38;;
51866;SDS011;52862;52.504;13.480;2022-08-04T02:53:44;12.02;;;5.18;;
51866;SDS011;52862;52.504;13.480;2022-08-04T02:56:12;16.50;;;5.47;;
51866;SDS011;52862;52.504;13.480;2022-08-04T02:58:44;12.02;;;5.20;;
51866;SDS011;52862;52.504;13.480;2022-08-04T03:01:14;11.82;;;4.72;;
51866;SDS011;52862;52.504;13.480;2022-08-04T03:03:44;8.93;;;4.82;;
51866;SDS011;52862;52.504;13.480;2022-08-04T03:12:38;11.63;;;5.47;;
51866;SDS011;52862;52.504;13.480;2022-08-04T03:28:30;9.40;;;5.18;;
51866;SDS011;52862;52.504;13.480;2022-08-04T03:31:27;11.25;;;4.75;;
51866;SDS011;52862;52.504;13.480;2022-08-04T03:37:15;11.10;;;5.00;;
51866;SDS011;52862;52.504;13.480;2022-08-04T03:40:03;11.50;;;5.55;;
51866;SDS011;52862;52.504;13.480;2022-08-04T03:43:06;15.43;;;5.20;;
51866;SDS011;52862;52.504;13.480;2022-08-04T03:49:24;20.55;;;5.03;;
51866;SDS011;52862;52.504;13.480;2022-08-04T03:52:07;14.95;;;5.45;;
51866;SDS011;52862;52.504;13.480;2022-08-04T03:55:13;17.08;;;4.70;;
51866;SDS011;52862;52.504;13.480;2022-08-04T03:58:08;14.88;;;5.22;;
51866;SDS011;52862;52.504;13.480;2022-08-04T04:01:02;28.67;;;5.20;;
51866;SDS011;52862;52.504;13.480;2022-08-04T04:03:49;15.52;;;6.03;;
51866;SDS011;52862;52.504;13.480;2022-08-04T04:13:23;28.10;;;5.47;;
51866;SDS011;52862;52.504;13.480;2022-08-04T04:16:18;12.10;;;5.38;;
51866;SDS011;52862;52.504;13.480;2022-08-04T04:21:55;18.38;;;9.93;;
51866;SDS011;52862;52.504;13.480;2022-08-04T04:24:32;13.15;;;5.97;;
51866;SDS011;52862;52.504;13.480;2022-08-04T04:27:21;12.40;;;5.97;;
51866;SDS011;52862;52.504;13.480;2022-08-04T04:30:04;14.05;;;5.70;;
51866;SDS011;52862;52.504;13.480;2022-08-04T04:35:37;18.35;;;5.82;;
51866;SDS011;52862;52.504;13.480;2022-08-04T04:38:20;25.05;;;5.55;;
51866;SDS011;52862;52.504;13.480;2022-08-04T04:41:03;13.63;;;5.47;;
51866;SDS011;52862;52.504;13.480;2022-08-04T04:43:45;16.30;;;5.85;;
51866;SDS011;52862;52.504;13.480;2022-08-04T04:46:37;14.02;;;5.72;;
51866;SDS011;52862;52.504;13.480;2022-08-04T04:49:11;7.80;;;5.32;;
51866;SDS011;52862;52.504;13.480;2022-08-04T04:51:47;13.70;;;5.97;;
51866;SDS011;52862;52.504;13.480;2022-08-04T04:54:30;15.63;;;5.60;;
51866;SDS011;52862;52.504;13.480;2022-08-04T04:57:04;17.25;;;6.30;;
51866;SDS011;52862;52.504;13.480;2022-08-04T04:59:38;21.38;;;6.35;;
51866;SDS011;52862;52.504;13.480;2022-08-04T05:05:14;25.95;;;6.38;;
51866;SDS011;52862;52.504;13.480;2022-08-04T05:08:08;31.33;;;6.50;;
51866;SDS011;52862;52.504;13.480;2022-08-04T05:14:22;21.15;;;6.55;;
51866;SDS011;52862;52.504;13.480;2022-08-04T05:17:11;20.58;;;6.78;;
51866;SDS011;52862;52.504;13.480;2022-08-04T05:19:43;17.23;;;6.15;;
51866;SDS011;52862;52.504;13.480;2022-08-04T05:22:24;19.63;;;6.70;;
51866;SDS011;52862;52.504;13.480;2022-08-04T05:24:59;17.13;;;6.93;;
51866;SDS011;52862;52.504;13.480;2022-08-04T05:27:30;16.85;;;6.40;;
51866;SDS011;52862;52.504;13.480;2022-08-04T05:30:06;15.25;;;6.57;;
51866;SDS011;52862;52.504;13.480;2022-08-04T05:32:37;29.15;;;6.85;;
51866;SDS011;52862;52.504;13.480;2022-08-04T05:35:11;9.82;;;6.20;;
51866;SDS011;52862;52.504;13.480;2022-08-04T05:38:05;17.25;;;7.22;;
51866;SDS011;52862;52.504;13.480;2022-08-04T05:40:33;20.80;;;6.65;;
51866;SDS011;52862;52.504;13.480;2022-08-04T05:43:01;14.07;;;6.38;;
51866;SDS011;52862;52.504;13.480;2022-08-04T05:45:29;11.55;;;6.00;;
51866;SDS011;52862;52.504;13.480;2022-08-04T05:48:06;18.88;;;8.07;;
51866;SDS011;52862;52.504;13.480;2022-08-04T05:50:33;39.75;;;7.60;;
51866;SDS011;52862;52.504;13.480;2022-08-04T05:53:01;35.65;;;7.57;;
51866;SDS011;52862;52.504;13.480;2022-08-04T05:55:29;27.23;;;7.05;;
51866;SDS011;52862;52.504;13.480;2022-08-04T05:58:17;20.90;;;6.53;;
51866;SDS011;52862;52.504;13.480;2022-08-04T06:00:45;38.75;;;7.60;;
51866;SDS011;52862;52.504;13.480;2022-08-04T06:05:46;34.17;;;6.10;;
51866;SDS011;52862;52.504;13.480;2022-08-04T06:08:14;54.63;;;8.27;;
51866;SDS011;52862;52.504;13.480;2022-08-04T06:10:41;26.77;;;6.53;;
51866;SDS011;52862;52.504;13.480;2022-08-04T06:13:11;30.23;;;7.55;;
51866;SDS011;52862;52.504;13.480;2022-08-04T06:16:02;27.50;;;6.90;;
51866;SDS011;52862;52.504;13.480;2022-08-04T06:18:33;24.80;;;8.27;;
51866;SDS011;52862;52.504;13.480;2022-08-04T06:21:23;47.72;;;7.88;;
51866;SDS011;52862;52.504;13.480;2022-08-04T06:23:53;22.58;;;7.28;;
51866;SDS011;52862;52.504;13.480;2022-08-04T06:26:29;29.80;;;7.70;;
51866;SDS011;52862;52.504;13.480;2022-08-04T06:28:59;57.10;;;7.70;;
51866;SDS011;52862;52.504;13.480;2022-08-04T06:31:27;47.75;;;7.88;;
51866;SDS011;52862;52.504;13.480;2022-08-04T06:34:29;25.98;;;6.75;;
51866;SDS011;52862;52.504;13.480;2022-08-04T06:37:00;26.08;;;6.88;;
51866;SDS011;52862;52.504;13.480;2022-08-04T06:39:28;35.08;;;7.15;;
51866;SDS011;52862;52.504;13.480;2022-08-04T06:41:57;37.58;;;6.82;;
51866;SDS011;52862;52.504;13.480;2022-08-04T06:44:44;27.38;;;5.93;;
51866;SDS011;52862;52.504;13.480;2022-08-04T06:47:14;20.23;;;7.78;;
51866;SDS011;52862;52.504;13.480;2022-08-04T06:49:45;26.35;;;7.05;;
51866;SDS011;52862;52.504;13.480;2022-08-04T06:52:34;27.88;;;7.22;;
51866;SDS011;52862;52.504;13.480;2022-08-04T06:55:01;22.73;;;6.70;;
51866;SDS011;52862;52.504;13.480;2022-08-04T06:57:30;24.92;;;5.70;;
51866;SDS011;52862;52.504;13.480;2022-08-04T07:00:03;22.25;;;5.95;;
51866;SDS011;52862;52.504;13.480;2022-08-04T07:02:35;26.33;;;6.10;;
51866;SDS011;52862;52.504;13.480;2022-08-04T07:05:08;26.25;;;6.13;;
51866;SDS011;52862;52.504;13.480;2022-08-04T07:07:36;16.58;;;6.32;;
51866;SDS011;52862;52.504;13.480;2022-08-04T07:10:23;29.13;;;5.72;;
51866;SDS011;52862;52.504;13.480;2022-08-04T07:12:52;26.23;;;5.22;;
51866;SDS011;52862;52.504;13.480;2022-08-04T07:15:19;23.42;;;5.53;;
51866;SDS011;52862;52.504;13.480;2022-08-04T07:17:47;13.35;;;5.47;;
51866;SDS011;52862;52.504;13.480;2022-08-04T07:20:18;22.90;;;6.03;;
51866;SDS011;52862;52.504;13.480;2022-08-04T07:23:02;9.65;;;5.28;;
51866;SDS011;52862;52.504;13.480;2022-08-04T07:25:29;22.08;;;5.60;;
51866;SDS011;52862;52.504;13.480;2022-08-04T07:28:17;15.38;;;4.88;;
51866;SDS011;52862;52.504;13.480;2022-08-04T07:30:44;20.25;;;5.10;;
51866;SDS011;52862;52.504;13.480;2022-08-04T07:33:12;17.58;;;5.65;;
51866;SDS011;52862;52.504;13.480;2022-08-04T07:35:40;25.00;;;5.55;;
51866;SDS011;52862;52.504;13.480;2022-08-04T07:38:27;26.92;;;5.82;;
51866;SDS011;52862;52.504;13.480;2022-08-04T07:40:54;20.98;;;5.15;;
51866;SDS011;52862;52.504;13.480;2022-08-04T07:43:21;10.68;;;5.28;;
51866;SDS011;52862;52.504;13.480;2022-08-04T07:45:49;11.85;;;4.72;;
51866;SDS011;52862;52.504;13.480;2022-08-04T07:48:16;14.75;;;5.30;;
51866;SDS011;52862;52.504;13.480;2022-08-04T07:50:44;21.42;;;4.90;;
51866;SDS011;52862;52.504;13.480;2022-08-04T07:53:11;27.98;;;4.93;;
51866;SDS011;52862;52.504;13.480;2022-08-04T07:55:58;14.02;;;4.60;;
51866;SDS011;52862;52.504;13.480;2022-08-04T07:58:26;28.73;;;4.70;;
51866;SDS011;52862;52.504;13.480;2022-08-04T08:00:55;22.98;;;5.03;;
51866;SDS011;52862;52.504;13.480;2022-08-04T08:03:22;13.23;;;5.05;;
51866;SDS011;52862;52.504;13.480;2022-08-04T08:05:50;23.58;;;4.30;;
51866;SDS011;52862;52.504;13.480;2022-08-04T08:08:37;14.80;;;4.10;;
51866;SDS011;52862;52.504;13.480;2022-08-04T08:11:05;11.65;;;4.32;;
51866;SDS011;52862;52.504;13.480;2022-08-04T08:13:32;10.88;;;4.55;;
51866;SDS011;52862;52.504;13.480;2022-08-04T08:15:59;18.13;;;5.05;;
51866;SDS011;52862;52.504;13.480;2022-08-04T08:18:27;23.70;;;4.15;;
51866;SDS011;52862;52.504;13.480;2022-08-04T08:20:55;28.75;;;4.53;;
51866;SDS011;52862;52.504;13.480;2022-08-04T08:23:22;30.92;;;4.88;;
51866;SDS011;52862;52.504;13.480;2022-08-04T08:25:50;26.40;;;4.47;;
51866;SDS011;52862;52.504;13.480;2022-08-04T08:28:17;19.35;;;4.95;;
51866;SDS011;52862;52.504;13.480;2022-08-04T08:30:44;31.52;;;4.93;;
51866;SDS011;52862;52.504;13.480;2022-08-04T08:33:18;19.23;;;5.13;;
51866;SDS011;52862;52.504;13.480;2022-08-04T08:35:48;13.82;;;4.75;;
51866;SDS011;52862;52.504;13.480;2022-08-04T08:38:26;12.82;;;4.57;;
51866;SDS011;52862;52.504;13.480;2022-08-04T08:41:09;10.30;;;4.30;;
51866;SDS011;52862;52.504;13.480;2022-08-04T08:44:02;37.78;;;4.82;;
51866;SDS011;52862;52.504;13.480;2022-08-04T08:46:59;17.17;;;3.85;;
51866;SDS011;52862;52.504;13.480;2022-08-04T08:49:45;25.33;;;4.75;;
51866;SDS011;52862;52.504;13.480;2022-08-04T08:52:41;14.15;;;3.95;;
51866;SDS011;52862;52.504;13.480;2022-08-04T08:55:34;15.18;;;3.85;;
51866;SDS011;52862;52.504;13.480;2022-08-04T09:01:32;21.80;;;4.28;;
51866;SDS011;52862;52.504;13.480;2022-08-04T09:10:11;19.30;;;4.53;;
51866;SDS011;52862;52.504;13.480;2022-08-04T09:12:45;14.32;;;3.63;;
51866;SDS011;52862;52.504;13.480;2022-08-04T09:15:21;13.57;;;3.40;;
51866;SDS011;52862;52.504;13.480;2022-08-04T09:17:56;15.00;;;3.85;;
51866;SDS011;52862;52.504;13.480;2022-08-04T09:20:30;9.68;;;3.60;;
51866;SDS011;52862;52.504;13.480;2022-08-04T09:23:05;8.55;;;3.28;;
51866;SDS011;52862;52.504;13.480;2022-08-04T09:25:37;15.88;;;3.55;;
51866;SDS011;52862;52.504;13.480;2022-08-04T09:28:16;9.25;;;3.70;;
51866;SDS011;52862;52.504;13.480;2022-08-04T09:31:08;16.63;;;3.38;;
51866;SDS011;52862;52.504;13.480;2022-08-04T09:33:41;8.77;;;3.83;;
51866;SDS011;52862;52.504;13.480;2022-08-04T09:36:14;23.20;;;3.17;;
51866;SDS011;52862;52.504;13.480;2022-08-04T09:38:58;18.05;;;3.22;;
51866;SDS011;52862;52.504;13.480;2022-08-04T09:41:34;16.17;;;3.40;;
51866;SDS011;52862;52.504;13.480;2022-08-04T09:44:20;8.98;;;3.60;;
51866;SDS011;52862;52.504;13.480;2022-08-04T09:47:15;12.25;;;3.55;;
51866;SDS011;52862;52.504;13.480;2022-08-04T09:49:52;10.80;;;3.15;;
51866;SDS011;52862;52.504;13.480;2022-08-04T09:52:26;4.63;;;3.10;;
51866;SDS011;52862;52.504;13.480;2022-08-04T09:55:01;11.02;;;3.42;;
51866;SDS011;52862;52.504;13.480;2022-08-04T09:57:39;21.95;;;3.38;;
51866;SDS011;52862;52.504;13.480;2022-08-04T10:00:13;10.38;;;4.03;;
51866;SDS011;52862;52.504;13.480;2022-08-04T10:02:43;4.40;;;2.92;;
51866;SDS011;52862;52.504;13.480;2022-08-04T10:05:13;6.78;;;2.92;;
51866;SDS011;52862;52.504;13.480;2022-08-04T10:07:48;12.48;;;3.30;;
51866;SDS011;52862;52.504;13.480;2022-08-04T10:10:46;10.77;;;2.55;;
51866;SDS011;52862;52.504;13.480;2022-08-04T10:13:24;7.20;;;3.15;;
51866;SDS011;52862;52.504;13.480;2022-08-04T10:16:04;7.00;;;2.88;;
51866;SDS011;52862;52.504;13.480;2022-08-04T10:18:43;13.38;;;2.97;;
51866;SDS011;52862;52.504;13.480;2022-08-04T10:21:17;9.40;;;2.67;;
51866;SDS011;52862;52.504;13.480;2022-08-04T10:23:56;17.85;;;2.88;;
51866;SDS011;52862;52.504;13.480;2022-08-04T10:26:41;9.88;;;2.60;;
51866;SDS011;52862;52.504;13.480;2022-08-04T10:29:15;12.50;;;2.65;;
51866;SDS011;52862;52.504;13.480;2022-08-04T10:31:53;3.05;;;2.55;;
51866;SDS011;52862;52.504;13.480;2022-08-04T10:34:25;17.63;;;3.10;;
51866;SDS011;52862;52.504;13.480;2022-08-04T10:36:56;10.07;;;2.53;;
51866;SDS011;52862;52.504;13.480;2022-08-04T10:39:31;13.57;;;2.83;;
51866;SDS011;52862;52.504;13.480;2022-08-04T10:42:11;8.10;;;2.63;;
51866;SDS011;52862;52.504;13.480;2022-08-04T10:44:51;6.60;;;2.78;;
51866;SDS011;52862;52.504;13.480;2022-08-04T10:47:31;11.15;;;3.00;;
51866;SDS011;52862;52.504;13.480;2022-08-04T10:50:03;17.20;;;2.70;;
51866;SDS011;52862;52.504;13.480;2022-08-04T10:52:35;9.07;;;2.95;;
51866;SDS011;52862;52.504;13.480;2022-08-04T10:55:10;4.95;;;2.33;;
51866;SDS011;52862;52.504;13.480;2022-08-04T10:57:45;11.75;;;2.90;;
51866;SDS011;52862;52.504;13.480;2022-08-04T11:00:17;9.38;;;2.35;;
51866;SDS011;52862;52.504;13.480;2022-08-04T11:02:50;11.57;;;2.63;;
51866;SDS011;52862;52.504;13.480;2022-08-04T11:05:23;13.93;;;2.58;;
51866;SDS011;52862;52.504;13.480;2022-08-04T11:07:55;14.20;;;2.53;;
51866;SDS011;52862;52.504;13.480;2022-08-04T11:10:27;15.20;;;2.40;;
51866;SDS011;52862;52.504;13.480;2022-08-04T11:13:00;8.43;;;2.33;;
51866;SDS011;52862;52.504;13.480;2022-08-04T11:15:32;8.57;;;3.45;;
51866;SDS011;52862;52.504;13.480;2022-08-04T11:18:06;18.67;;;2.92;;
51866;SDS011;52862;52.504;13.480;2022-08-04T11:20:43;11.88;;;2.50;;
51866;SDS011;52862;52.504;13.480;2022-08-04T11:23:16;9.10;;;3.42;;
51866;SDS011;52862;52.504;13.480;2022-08-04T11:25:50;14.80;;;2.60;;
51866;SDS011;52862;52.504;13.480;2022-08-04T11:28:24;5.20;;;2.40;;
51866;SDS011;52862;52.504;13.480;2022-08-04T11:31:00;14.63;;;2.47;;
51866;SDS011;52862;52.504;13.480;2022-08-04T11:33:33;11.25;;;2.53;;
51866;SDS011;52862;52.504;13.480;2022-08-04T11:36:06;4.70;;;2.40;;
51866;SDS011;52862;52.504;13.480;2022-08-04T11:38:42;4.82;;;2.20;;
51866;SDS011;52862;52.504;13.480;2022-08-04T11:41:18;5.78;;;2.35;;
51866;SDS011;52862;52.504;13.480;2022-08-04T11:43:53;19.33;;;2.35;;
51866;SDS011;52862;52.504;13.480;2022-08-04T11:46:29;8.95;;;2.38;;
51866;SDS011;52862;52.504;13.480;2022-08-04T11:49:04;12.35;;;2.72;;
51866;SDS011;52862;52.504;13.480;2022-08-04T11:51:33;3.72;;;2.15;;
51866;SDS011;52862;52.504;13.480;2022-08-04T11:54:02;9.25;;;2.40;;
51866;SDS011;52862;52.504;13.480;2022-08-04T11:56:29;15.50;;;2.58;;
51866;SDS011;52862;52.504;13.480;2022-08-04T11:59:03;4.57;;;2.30;;
51866;SDS011;52862;52.504;13.480;2022-08-04T12:01:33;8.32;;;2.60;;
51866;SDS011;52862;52.504;13.480;2022-08-04T12:04:11;19.20;;;2.60;;
51866;SDS011;52862;52.504;13.480;2022-08-04T12:06:48;9.80;;;2.30;;
51866;SDS011;52862;52.504;13.480;2022-08-04T12:09:43;5.72;;;2.20;;
51866;SDS011;52862;52.504;13.480;2022-08-04T12:12:16;22.02;;;2.60;;
51866;SDS011;52862;52.504;13.480;2022-08-04T12:14:48;2.65;;;1.95;;
51866;SDS011;52862;52.504;13.480;2022-08-04T12:17:26;9.73;;;2.13;;
51866;SDS011;52862;52.504;13.480;2022-08-04T12:20:18;8.80;;;2.53;;
51866;SDS011;52862;52.504;13.480;2022-08-04T12:23:03;6.15;;;2.70;;
51866;SDS011;52862;52.504;13.480;2022-08-04T12:25:39;13.93;;;2.33;;
51866;SDS011;52862;52.504;13.480;2022-08-04T12:28:13;5.70;;;2.35;;
51866;SDS011;52862;52.504;13.480;2022-08-04T12:30:44;10.18;;;2.47;;
51866;SDS011;52862;52.504;13.480;2022-08-04T12:33:30;9.00;;;2.72;;
51866;SDS011;52862;52.504;13.480;2022-08-04T12:36:26;6.85;;;2.42;;
51866;SDS011;52862;52.504;13.480;2022-08-04T12:38:58;5.30;;;2.90;;
51866;SDS011;52862;52.504;13.480;2022-08-04T12:41:31;8.20;;;2.50;;
51866;SDS011;52862;52.504;13.480;2022-08-04T12:44:04;8.50;;;2.00;;
51866;SDS011;52862;52.504;13.480;2022-08-04T12:46:55;6.50;;;2.10;;
51866;SDS011;52862;52.504;13.480;2022-08-04T12:49:44;8.18;;;2.17;;
51866;SDS011;52862;52.504;13.480;2022-08-04T12:52:27;6.07;;;2.38;;
51866;SDS011;52862;52.504;13.480;2022-08-04T12:55:15;10.63;;;2.42;;
51866;SDS011;52862;52.504;13.480;2022-08-04T12:57:43;7.82;;;2.25;;
51866;SDS011;52862;52.504;13.480;2022-08-04T13:00:21;4.57;;;1.75;;
51866;SDS011;52862;52.504;13.480;2022-08-04T13:02:57;6.13;;;2.05;;
51866;SDS011;52862;52.504;13.480;2022-08-04T13:05:29;7.55;;;2.35;;
51866;SDS011;52862;52.504;13.480;2022-08-04T13:07:59;14.25;;;2.08;;
51866;SDS011;52862;52.504;13.480;2022-08-04T13:10:29;9.32;;;1.88;;
51866;SDS011;52862;52.504;13.480;2022-08-04T13:13:02;10.43;;;2.17;;
51866;SDS011;52862;52.504;13.480;2022-08-04T13:15:30;8.20;;;1.98;;
51866;SDS011;52862;52.504;13.480;2022-08-04T13:18:12;8.07;;;2.10;;
51866;SDS011;52862;52.504;13.480;2022-08-04T13:20:40;6.53;;;1.90;;
51866;SDS011;52862;52.504;13.480;2022-08-04T13:23:10;12.10;;;2.10;;
51866;SDS011;52862;52.504;13.480;2022-08-04T13:25:39;6.75;;;2.30;;
51866;SDS011;52862;52.504;13.480;2022-08-04T13:28:28;7.35;;;2.28;;
51866;SDS011;52862;52.504;13.480;2022-08-04T13:30:59;11.95;;;2.40;;
51866;SDS011;52862;52.504;13.480;2022-08-04T13:33:28;6.13;;;2.20;;
51866;SDS011;52862;52.504;13.480;2022-08-04T13:35:56;3.85;;;2.05;;
51866;SDS011;52862;52.504;13.480;2022-08-04T13:38:24;3.78;;;2.22;;
51866;SDS011;52862;52.504;13.480;2022-08-04T13:40:53;5.93;;;2.17;;
51866;SDS011;52862;52.504;13.480;2022-08-04T13:43:23;7.35;;;1.90;;
51866;SDS011;52862;52.504;13.480;2022-08-04T13:46:12;30.52;;;2.72;;
51866;SDS011;52862;52.504;13.480;2022-08-04T13:48:53;10.38;;;2.13;;
51866;SDS011;52862;52.504;13.480;2022-08-04T13:51:41;9.45;;;2.30;;
51866;SDS011;52862;52.504;13.480;2022-08-04T13:54:24;14.20;;;2.10;;
51866;SDS011;52862;52.504;13.480;2022-08-04T13:56:57;12.10;;;2.20;;
51866;SDS011;52862;52.504;13.480;2022-08-04T13:59:26;9.45;;;1.92;;
51866;SDS011;52862;52.504;13.480;2022-08-04T14:01:59;9.20;;;2.03;;
51866;SDS011;52862;52.504;13.480;2022-08-04T14:04:27;8.93;;;2.00;;
51866;SDS011;52862;52.504;13.480;2022-08-04T14:06:58;6.50;;;1.75;;
51866;SDS011;52862;52.504;13.480;2022-08-04T14:09:42;4.80;;;1.70;;
51866;SDS011;52862;52.504;13.480;2022-08-04T14:12:29;12.60;;;1.90;;
51866;SDS011;52862;52.504;13.480;2022-08-04T14:15:04;7.93;;;1.88;;
51866;SDS011;52862;52.504;13.480;2022-08-04T14:17:32;2.90;;;1.50;;
51866;SDS011;52862;52.504;13.480;2022-08-04T14:19:59;6.03;;;1.65;;
51866;SDS011;52862;52.504;13.480;2022-08-04T14:22:34;10.80;;;1.50;;
51866;SDS011;52862;52.504;13.480;2022-08-04T14:25:07;3.78;;;1.58;;
51866;SDS011;52862;52.504;13.480;2022-08-04T14:27:42;6.65;;;1.90;;
51866;SDS011;52862;52.504;13.480;2022-08-04T14:30:21;10.48;;;1.70;;
51866;SDS011;52862;52.504;13.480;2022-08-04T14:32:56;2.65;;;1.52;;
51866;SDS011;52862;52.504;13.480;2022-08-04T14:35:54;3.03;;;1.77;;
51866;SDS011;52862;52.504;13.480;2022-08-04T14:38:22;4.95;;;1.50;;
51866;SDS011;52862;52.504;13.480;2022-08-04T14:40:50;4.00;;;1.55;;
51866;SDS011;52862;52.504;13.480;2022-08-04T14:43:25;10.43;;;1.90;;
51866;SDS011;52862;52.504;13.480;2022-08-04T14:45:54;3.35;;;1.60;;
51866;SDS011;52862;52.504;13.480;2022-08-04T14:48:29;5.80;;;1.83;;
51866;SDS011;52862;52.504;13.480;2022-08-04T14:50:56;5.18;;;1.63;;
51866;SDS011;52862;52.504;13.480;2022-08-04T14:53:23;6.20;;;1.67;;
51866;SDS011;52862;52.504;13.480;2022-08-04T14:55:52;12.52;;;2.10;;
51866;SDS011;52862;52.504;13.480;2022-08-04T14:58:22;5.88;;;2.17;;
51866;SDS011;52862;52.504;13.480;2022-08-04T15:01:04;4.35;;;1.88;;
51866;SDS011;52862;52.504;13.480;2022-08-04T15:03:38;8.57;;;2.00;;
51866;SDS011;52862;52.504;13.480;2022-08-04T15:06:18;5.40;;;1.55;;
51866;SDS011;52862;52.504;13.480;2022-08-04T15:08:48;5.75;;;2.00;;
51866;SDS011;52862;52.504;13.480;2022-08-04T15:11:16;4.63;;;1.65;;
51866;SDS011;52862;52.504;13.480;2022-08-04T15:13:49;2.38;;;1.63;;
51866;SDS011;52862;52.504;13.480;2022-08-04T15:16:16;7.60;;;1.80;;
51866;SDS011;52862;52.504;13.480;2022-08-04T15:18:43;4.97;;;1.42;;
51866;SDS011;52862;52.504;13.480;2022-08-04T15:21:15;6.63;;;1.85;;
51866;SDS011;52862;52.504;13.480;2022-08-04T15:23:42;8.52;;;1.50;;
51866;SDS011;52862;52.504;13.480;2022-08-04T15:26:11;12.00;;;1.95;;
51866;SDS011;52862;52.504;13.480;2022-08-04T15:28:50;9.35;;;2.05;;
51866;SDS011;52862;52.504;13.480;2022-08-04T15:31:20;5.38;;;2.00;;
51866;SDS011;52862;52.504;13.480;2022-08-04T15:34:09;5.68;;;1.90;;
51866;SDS011;52862;52.504;13.480;2022-08-04T15:36:37;5.28;;;2.00;;
51866;SDS011;52862;52.504;13.480;2022-08-04T15:39:31;9.73;;;1.95;;
51866;SDS011;52862;52.504;13.480;2022-08-04T15:42:07;9.48;;;1.70;;
51866;SDS011;52862;52.504;13.480;2022-08-04T15:47:42;14.30;;;2.10;;
51866;SDS011;52862;52.504;13.480;2022-08-04T15:50:58;3.67;;;1.70;;
51866;SDS011;52862;52.504;13.480;2022-08-04T15:53:28;9.15;;;1.70;;
51866;SDS011;52862;52.504;13.480;2022-08-04T16:02:34;8.23;;;1.60;;
51866;SDS011;52862;52.504;13.480;2022-08-04T16:07:55;9.32;;;3.80;;
51866;SDS011;52862;52.504;13.480;2022-08-04T16:10:34;26.17;;;2.30;;
51866;SDS011;52862;52.504;13.480;2022-08-04T16:13:03;4.80;;;2.13;;
51866;SDS011;52862;52.504;13.480;2022-08-04T16:15:38;8.45;;;1.80;;
51866;SDS011;52862;52.504;13.480;2022-08-04T16:18:07;7.53;;;1.50;;
51866;SDS011;52862;52.504;13.480;2022-08-04T16:20:53;2.08;;;1.60;;
51866;SDS011;52862;52.504;13.480;2022-08-04T16:23:28;8.40;;;1.70;;
51866;SDS011;52862;52.504;13.480;2022-08-04T16:29:29;7.72;;;1.80;;
51866;SDS011;52862;52.504;13.480;2022-08-04T16:32:09;6.70;;;1.83;;
51866;SDS011;52862;52.504;13.480;2022-08-04T16:34:39;6.50;;;2.40;;
51866;SDS011;52862;52.504;13.480;2022-08-04T16:37:20;4.95;;;1.67;;
51866;SDS011;52862;52.504;13.480;2022-08-04T16:39:48;14.55;;;2.38;;